Time;durP1;ratioP1;P1;durP2;ratioP2;P2;SDS_P1;SDS_P2;PMS_P1;PMS_P2;Temp;Humidity;BMP_temperature;BMP_pressure;BME280_temperature;BME280_humidity;BME280_pressure;Samples;Min_cycle;Max_cycle;Signal;HPM_P1;HPM_P2
2022/12/01 00:00:40;;;;;;;404.97;375.03;;;3.70;35.60;;;;;;5091652;28;20828;-71
2022/12/01 00:03:06;;;;;;;446.23;415.20;;;3.70;35.70;;;;;;5091741;28;20174;-70
2022/12/01 00:05:31;;;;;;;434.97;402.50;;;3.70;35.20;;;;;;5090454;28;20421;-71
2022/12/01 00:07:58;;;;;;;605.10;563.13;;;3.70;35.10;;;;;;5091466;28;20321;-71
2022/12/01 00:10:24;;;;;;;623.10;579.37;;;3.60;35.50;;;;;;5091756;28;20288;-71
2022/12/01 00:12:54;;;;;;;302.30;278.53;;;3.70;35.90;;;;;;5092153;28;20537;-71
2022/12/01 00:15:20;;;;;;;488.25;454.23;;;3.60;35.60;;;;;;5095497;28;20417;-72
2022/12/01 00:17:47;;;;;;;406.15;376.60;;;3.70;35.50;;;;;;5095503;28;20538;-70
2022/12/01 00:20:14;;;;;;;687.73;639.30;;;3.70;34.50;;;;;;5095453;28;20324;-71
2022/12/01 00:22:47;;;;;;;605.72;564.92;;;3.80;33.30;;;;;;5095085;28;20443;-71
2022/12/01 00:25:15;;;;;;;618.43;574.90;;;3.80;33.10;;;;;;5095303;28;20230;-70
2022/12/01 00:27:41;;;;;;;425.73;396.23;;;3.80;32.60;;;;;;5095202;28;20417;-71
2022/12/01 00:30:10;;;;;;;550.70;512.93;;;3.80;33.00;;;;;;5093929;28;20419;-71
2022/12/01 00:32:35;;;;;;;679.03;630.63;;;3.70;32.70;;;;;;5093585;28;20418;-71
2022/12/01 00:35:02;;;;;;;525.00;489.67;;;3.70;33.40;;;;;;5095289;28;20639;-71
2022/12/01 00:37:30;;;;;;;537.43;500.30;;;3.60;33.10;;;;;;5095128;28;20179;-72
2022/12/01 00:39:57;;;;;;;394.93;368.13;;;3.60;33.40;;;;;;5095081;28;20442;-71
2022/12/01 00:42:22;;;;;;;627.10;584.20;;;3.70;33.70;;;;;;5094943;28;20904;-71
2022/12/01 00:44:48;;;;;;;545.13;504.93;;;3.80;33.10;;;;;;5095120;28;20703;-71
2022/12/01 00:47:14;;;;;;;352.03;327.93;;;3.70;33.10;;;;;;5094949;28;20207;-71
2022/12/01 00:49:39;;;;;;;393.63;363.83;;;3.90;32.90;;;;;;5093618;28;20200;-70
2022/12/01 00:52:05;;;;;;;222.13;202.07;;;3.90;32.00;;;;;;5093517;28;20983;-71
2022/12/01 00:54:31;;;;;;;242.27;222.67;;;3.90;32.00;;;;;;5094813;28;20291;-71
2022/12/01 00:56:57;;;;;;;353.23;328.47;;;4.00;32.10;;;;;;5093439;28;20641;-71
2022/12/01 00:59:23;;;;;;;148.23;127.73;;;4.00;31.80;;;;;;5094689;28;20186;-71
2022/12/01 01:01:49;;;;;;;101.17;76.40;;;4.10;31.60;;;;;;5094447;28;20410;-71
2022/12/01 01:04:14;;;;;;;356.30;329.13;;;4.00;30.50;;;;;;5093350;28;20181;-70
2022/12/01 01:06:42;;;;;;;225.20;206.40;;;4.00;25.60;;;;;;5094588;28;20638;-70
2022/12/01 01:09:08;;;;;;;180.83;164.60;;;3.90;23.50;;;;;;5093123;28;20303;-70
2022/12/01 01:11:34;;;;;;;326.67;302.48;;;3.90;22.60;;;;;;5092302;28;20498;-70
2022/12/01 01:13:59;;;;;;;300.90;280.77;;;3.90;22.40;;;;;;5094419;28;20302;-70
2022/12/01 01:16:25;;;;;;;279.23;259.00;;;3.90;22.70;;;;;;5094505;28;20216;-72
2022/12/01 01:18:51;;;;;;;235.13;217.20;;;3.90;22.40;;;;;;5094303;28;20245;-71
2022/12/01 01:21:20;;;;;;;231.17;213.60;;;3.90;20.60;;;;;;5094290;28;20421;-70
2022/12/01 01:23:46;;;;;;;272.27;252.57;;;3.90;21.40;;;;;;5094049;28;20535;-70
2022/12/01 01:26:15;;;;;;;193.93;178.17;;;3.90;20.60;;;;;;5093282;28;20453;-70
2022/12/01 01:28:41;;;;;;;241.60;223.80;;;3.90;20.70;;;;;;5094056;28;20441;-70
2022/12/01 01:31:07;;;;;;;337.90;315.37;;;3.90;20.60;;;;;;5094182;28;20961;-71
2022/12/01 01:33:33;;;;;;;428.20;400.57;;;3.90;21.00;;;;;;5093882;28;20513;-70
2022/12/01 01:35:59;;;;;;;326.97;304.93;;;3.90;20.10;;;;;;5094229;28;20418;-70
2022/12/01 01:38:25;;;;;;;365.67;341.77;;;3.90;19.40;;;;;;5094237;28;20203;-71
2022/12/01 01:40:51;;;;;;;379.10;354.67;;;3.80;20.20;;;;;;5094056;28;20970;-70
2022/12/01 01:43:37;;;;;;;333.00;310.20;;;3.70;19.70;;;;;;5094109;28;20518;-71
2022/12/01 01:46:04;;;;;;;286.60;266.10;;;3.70;19.90;;;;;;5094222;28;20309;-70
2022/12/01 01:48:30;;;;;;;238.05;220.90;;;3.70;19.60;;;;;;5094431;28;20929;-71
2022/12/01 01:50:56;;;;;;;179.50;165.03;;;3.80;20.60;;;;;;5094400;28;20273;-69
2022/12/01 01:53:22;;;;;;;294.17;273.80;;;3.80;20.80;;;;;;5093718;28;20551;-70
2022/12/01 01:55:48;;;;;;;196.47;180.50;;;3.80;19.80;;;;;;5092935;28;20187;-70
2022/12/01 01:58:13;;;;;;;154.80;140.37;;;3.80;19.40;;;;;;5094330;28;20420;-70
2022/12/01 02:00:43;;;;;;;310.33;288.83;;;3.80;20.10;;;;;;5094579;28;20182;-70
2022/12/01 02:03:12;;;;;;;268.02;249.52;;;3.70;20.00;;;;;;5092293;28;20182;-70
2022/12/01 02:05:38;;;;;;;249.43;231.23;;;3.70;19.30;;;;;;5093464;28;20173;-69
2022/12/01 02:08:11;;;;;;;167.10;153.00;;;3.70;19.30;;;;;;5093301;28;20863;-69
2022/12/01 02:10:48;;;;;;;415.48;389.83;;;3.70;19.30;;;;;;5093641;28;20172;-70
2022/12/01 02:13:35;;;;;;;338.98;317.00;;;3.60;19.20;;;;;;5093375;28;20223;-70
2022/12/01 02:16:37;;;;;;;465.27;436.47;;;3.70;19.30;;;;;;5093215;28;20263;-71
2022/12/01 02:19:24;;;;;;;367.47;344.83;;;3.70;19.30;;;;;;5079495;28;20438;-71
2022/12/01 02:22:17;;;;;;;397.23;372.70;;;3.70;19.30;;;;;;5092903;28;20494;-70
2022/12/01 02:25:06;;;;;;;413.70;387.30;;;3.60;19.20;;;;;;5093124;28;20171;-70
2022/12/01 02:28:08;;;;;;;337.77;316.40;;;3.70;19.30;;;;;;5092983;28;20230;-71
2022/12/01 02:30:52;;;;;;;395.90;370.55;;;3.70;19.30;;;;;;5092769;28;20173;-70
2022/12/01 02:33:26;;;;;;;226.83;209.87;;;3.70;19.30;;;;;;5092632;28;20213;-70
2022/12/01 02:36:01;;;;;;;262.40;243.87;;;3.70;19.30;;;;;;5092610;28;20417;-70
2022/12/01 02:38:39;;;;;;;409.17;382.50;;;3.70;19.10;;;;;;5092785;28;20922;-71
2022/12/01 02:41:15;;;;;;;430.05;402.65;;;3.90;18.90;;;;;;5092718;28;20775;-70
2022/12/01 02:43:52;;;;;;;350.30;328.83;;;3.80;18.90;;;;;;5092570;28;20584;-70
2022/12/01 02:46:28;;;;;;;302.87;283.53;;;3.80;19.10;;;;;;5092783;28;20780;-71
2022/12/01 02:48:58;;;;;;;377.90;355.73;;;3.90;19.00;;;;;;5091432;28;20476;-71
2022/12/01 02:51:29;;;;;;;424.67;397.20;;;3.90;19.00;;;;;;5092689;28;20425;-70
2022/12/01 02:54:00;;;;;;;330.93;309.80;;;3.90;18.10;;;;;;5091171;28;20461;-70
2022/12/01 02:56:26;;;;;;;231.73;214.07;;;3.90;18.30;;;;;;5092483;28;20428;-71
2022/12/01 02:58:51;;;;;;;385.63;360.90;;;3.80;19.10;;;;;;5092353;28;20189;-70
2022/12/01 03:01:32;;;;;;;352.07;328.73;;;3.80;18.90;;;;;;5092448;28;20505;-71
2022/12/01 03:04:12;;;;;;;329.63;306.50;;;3.80;18.50;;;;;;5092344;28;20267;-72
2022/12/01 03:07:04;;;;;;;184.10;170.38;;;3.80;19.40;;;;;;5092406;28;20176;-71
2022/12/01 03:09:56;;;;;;;340.00;316.63;;;3.80;19.40;;;;;;5108764;22;20234;-70
2022/12/01 03:12:30;;;;;;;320.27;299.33;;;3.80;19.40;;;;;;5076391;28;20953;-69
2022/12/01 03:15:17;;;;;;;327.57;304.57;;;3.80;19.40;;;;;;5060468;28;20423;-70
2022/12/01 03:17:55;;;;;;;397.35;371.80;;;3.70;19.50;;;;;;5077792;28;20553;-69
2022/12/01 03:20:32;;;;;;;194.30;177.13;;;3.60;20.30;;;;;;5077748;28;20330;-68
2022/12/01 03:23:11;;;;;;;243.93;224.27;;;3.60;21.40;;;;;;5077064;28;20424;-67
2022/12/01 03:25:40;;;;;;;426.58;397.48;;;3.50;22.60;;;;;;5078562;28;20608;-69
2022/12/01 03:28:08;;;;;;;335.77;311.47;;;3.50;23.40;;;;;;5080077;28;20235;-68
2022/12/01 03:30:36;;;;;;;271.77;251.83;;;3.50;23.40;;;;;;5079362;28;20452;-68
2022/12/01 03:33:10;;;;;;;188.30;171.65;;;3.50;23.40;;;;;;5078374;28;20454;-67
2022/12/01 03:35:53;;;;;;;271.90;251.27;;;3.40;24.70;;;;;;5079940;28;20171;-68
2022/12/01 03:38:25;;;;;;;504.17;469.00;;;3.30;25.40;;;;;;5079809;28;20187;-68
2022/12/01 03:41:04;;;;;;;311.25;287.45;;;3.40;25.40;;;;;;5079787;28;20180;-68
2022/12/01 03:43:34;;;;;;;452.23;421.97;;;3.40;25.50;;;;;;5080058;28;20184;-68
2022/12/01 03:46:09;;;;;;;427.58;397.73;;;3.20;26.00;;;;;;5079102;28;20427;-68
2022/12/01 03:48:36;;;;;;;573.90;536.47;;;3.20;26.80;;;;;;5079948;28;20208;-69
2022/12/01 03:51:12;;;;;;;171.60;155.50;;;3.10;26.60;;;;;;5082133;28;20179;-68
2022/12/01 03:53:58;;;;;;;311.83;289.70;;;3.10;27.20;;;;;;5084183;28;20200;-69
2022/12/01 03:56:31;;;;;;;487.30;454.20;;;3.20;27.20;;;;;;5084338;28;20195;-68
2022/12/01 03:59:00;;;;;;;474.77;443.50;;;3.10;27.20;;;;;;5084798;28;20503;-69
2022/12/01 04:01:31;;;;;;;533.65;496.67;;;3.20;27.20;;;;;;5081494;28;20176;-69
2022/12/01 04:04:04;;;;;;;369.27;342.67;;;3.00;27.10;;;;;;5080306;28;20173;-69
2022/12/01 04:06:30;;;;;;;228.65;209.60;;;3.00;27.80;;;;;;5079963;28;20679;-69
2022/12/01 04:08:56;;;;;;;278.30;257.17;;;3.00;27.90;;;;;;5079836;28;20212;-69
2022/12/01 04:14:06;;;;;;;387.25;359.55;;;3.00;27.90;;;;;;5084149;28;20238;-69
2022/12/01 04:16:31;;;;;;;396.67;370.80;;;3.00;27.40;;;;;;5083679;28;20203;-69
2022/12/01 04:18:57;;;;;;;330.47;303.77;;;3.00;28.00;;;;;;5084636;28;20203;-69
2022/12/01 04:21:22;;;;;;;320.27;297.30;;;3.00;27.90;;;;;;5083604;28;20747;-68
2022/12/01 04:24:00;;;;;;;431.50;401.17;;;3.10;28.20;;;;;;5081660;28;20188;-68
2022/12/01 04:26:31;;;;;;;381.10;354.17;;;3.20;27.40;;;;;;5081402;28;20664;-69
2022/12/01 04:28:58;;;;;;;283.65;261.50;;;3.20;27.20;;;;;;5082571;28;20321;-69
2022/12/01 04:31:23;;;;;;;561.17;525.25;;;3.20;27.20;;;;;;5083580;28;20169;-69
2022/12/01 04:33:49;;;;;;;390.30;365.00;;;3.10;27.20;;;;;;5079848;28;20210;-69
2022/12/01 04:36:14;;;;;;;546.70;509.80;;;3.10;27.20;;;;;;5080728;28;20598;-69
2022/12/01 04:38:40;;;;;;;343.67;318.50;;;3.10;27.70;;;;;;5079733;28;20189;-69
2022/12/01 04:41:10;;;;;;;468.37;436.20;;;3.10;28.20;;;;;;5079656;28;20264;-68
2022/12/01 04:43:36;;;;;;;506.75;473.40;;;3.10;27.80;;;;;;5081486;28;20188;-69
2022/12/01 04:46:02;;;;;;;410.70;380.58;;;3.00;27.10;;;;;;5081370;28;20706;-68
2022/12/01 04:48:28;;;;;;;480.23;448.38;;;2.90;27.00;;;;;;5079810;28;20212;-69
2022/12/01 04:50:53;;;;;;;423.83;394.50;;;2.90;27.30;;;;;;5078295;28;20176;-69
2022/12/01 04:53:19;;;;;;;460.30;427.40;;;2.80;27.40;;;;;;5079827;28;20206;-68
2022/12/01 04:55:44;;;;;;;390.83;362.57;;;2.80;28.00;;;;;;5079870;28;20187;-68
2022/12/01 04:58:10;;;;;;;513.03;477.80;;;2.80;28.30;;;;;;5080073;28;20183;-69
2022/12/01 05:00:36;;;;;;;496.57;462.87;;;2.80;28.40;;;;;;5078439;28;20220;-69
2022/12/01 05:03:02;;;;;;;448.30;417.10;;;2.70;28.40;;;;;;5076984;28;20175;-69
2022/12/01 05:05:28;;;;;;;541.87;504.17;;;2.70;29.20;;;;;;5076888;28;20240;-69
2022/12/01 05:07:53;;;;;;;447.53;415.97;;;2.60;29.20;;;;;;5077467;28;20867;-69
2022/12/01 05:10:19;;;;;;;398.33;368.93;;;2.70;29.30;;;;;;5077246;28;20228;-69
2022/12/01 05:12:45;;;;;;;441.33;409.23;;;2.70;29.50;;;;;;5077798;28;20187;-69
2022/12/01 05:15:11;;;;;;;300.67;276.40;;;2.70;29.60;;;;;;5078220;28;20173;-69
2022/12/01 05:17:37;;;;;;;325.98;302.55;;;2.80;29.50;;;;;;5075874;28;20184;-69
2022/12/01 05:22:47;;;;;;;533.45;497.75;;;2.80;29.10;;;;;;5079242;28;20181;-69
2022/12/01 05:25:13;;;;;;;531.33;495.57;;;2.80;29.00;;;;;;5077091;28;20183;-71
2022/12/01 05:27:38;;;;;;;463.63;431.07;;;2.70;29.00;;;;;;5078608;28;20545;-69
2022/12/01 05:30:05;;;;;;;290.13;268.40;;;2.70;28.80;;;;;;5075848;28;20199;-69
2022/12/01 05:32:30;;;;;;;420.13;390.23;;;2.80;29.20;;;;;;5074939;28;20180;-70
2022/12/01 05:34:56;;;;;;;532.90;496.83;;;2.80;29.10;;;;;;5078752;28;20296;-69
2022/12/01 05:37:21;;;;;;;415.47;385.80;;;2.80;29.00;;;;;;5077792;28;20178;-69
2022/12/01 05:39:47;;;;;;;529.13;492.07;;;2.80;28.80;;;;;;5075280;28;20196;-70
2022/12/01 05:42:12;;;;;;;299.40;277.57;;;2.70;28.80;;;;;;5075791;28;20176;-69
2022/12/01 05:44:38;;;;;;;456.00;424.50;;;2.60;28.90;;;;;;5075756;28;20232;-68
2022/12/01 05:47:03;;;;;;;503.03;468.10;;;2.70;29.40;;;;;;5075387;28;20172;-69
2022/12/01 05:49:29;;;;;;;528.93;491.37;;;2.70;29.20;;;;;;5077805;28;20557;-70
2022/12/01 05:51:54;;;;;;;512.37;475.83;;;2.70;29.10;;;;;;5077545;28;20184;-69
2022/12/01 05:54:20;;;;;;;475.23;440.07;;;2.70;29.20;;;;;;5076610;28;20211;-70
2022/12/01 05:56:45;;;;;;;535.00;498.87;;;2.60;29.40;;;;;;5078132;28;20177;-70
2022/12/01 05:59:11;;;;;;;250.50;228.67;;;2.60;29.40;;;;;;5074680;28;20215;-69
2022/12/01 06:01:36;;;;;;;359.40;330.67;;;2.60;29.70;;;;;;5073651;28;20182;-69
2022/12/01 06:04:02;;;;;;;291.50;269.80;;;2.70;29.30;;;;;;5073407;28;20176;-69
2022/12/01 06:06:28;;;;;;;551.80;513.47;;;2.60;29.30;;;;;;5073395;28;20184;-69
2022/12/01 06:08:53;;;;;;;351.67;324.53;;;2.60;29.60;;;;;;5073166;28;20942;-69
2022/12/01 06:11:19;;;;;;;436.00;405.00;;;2.60;29.60;;;;;;5072541;28;20545;-69
2022/12/01 06:13:44;;;;;;;601.33;561.93;;;2.60;29.60;;;;;;5071270;28;20211;-70
2022/12/01 06:16:10;;;;;;;461.27;429.03;;;2.50;29.90;;;;;;5073014;28;20184;-70
2022/12/01 06:18:37;;;;;;;590.07;549.57;;;2.50;30.00;;;;;;5072982;28;20204;-70
2022/12/01 06:21:04;;;;;;;600.35;559.33;;;2.60;29.70;;;;;;5072949;28;20655;-69
2022/12/01 06:23:30;;;;;;;540.78;498.42;;;2.50;30.00;;;;;;5072645;28;20237;-69
2022/12/01 06:25:56;;;;;;;636.60;593.20;;;2.50;29.90;;;;;;5072897;28;20183;-70
2022/12/01 06:28:21;;;;;;;459.67;423.23;;;2.50;30.00;;;;;;5077161;28;20207;-69
2022/12/01 06:30:47;;;;;;;488.77;453.10;;;2.50;30.00;;;;;;5075117;28;20662;-69
2022/12/01 06:33:12;;;;;;;645.37;602.20;;;2.50;29.70;;;;;;5076402;28;20286;-69
2022/12/01 06:35:38;;;;;;;432.57;401.53;;;2.50;29.40;;;;;;5076133;28;20180;-69
2022/12/01 06:38:04;;;;;;;360.27;332.40;;;2.50;29.50;;;;;;5075019;28;20186;-68
2022/12/01 06:40:29;;;;;;;578.47;538.13;;;2.50;29.40;;;;;;5076284;28;20173;-68
2022/12/01 06:42:59;;;;;;;426.17;395.90;;;2.60;29.70;;;;;;5076724;28;20181;-68
2022/12/01 06:45:25;;;;;;;361.77;336.13;;;2.50;29.40;;;;;;5077124;28;20177;-69
2022/12/01 06:47:55;;;;;;;460.33;426.27;;;2.50;29.40;;;;;;5076441;28;20177;-67
2022/12/01 06:50:20;;;;;;;488.38;452.35;;;2.50;29.80;;;;;;5074647;28;20196;-69
2022/12/01 06:52:46;;;;;;;398.77;368.67;;;2.60;29.30;;;;;;5078695;28;20176;-68
2022/12/01 06:55:12;;;;;;;401.20;370.20;;;2.60;29.40;;;;;;5076716;28;20177;-68
2022/12/01 06:57:38;;;;;;;629.07;586.73;;;2.60;28.50;;;;;;5077386;28;20415;-67
2022/12/01 07:00:04;;;;;;;413.97;382.67;;;2.60;29.00;;;;;;5076397;28;20535;-68
2022/12/01 07:02:30;;;;;;;387.27;358.38;;;2.60;29.10;;;;;;5075875;28;20184;-67
2022/12/01 07:04:55;;;;;;;538.77;503.33;;;2.60;29.60;;;;;;5077363;28;20180;-68
2022/12/01 07:07:21;;;;;;;218.43;199.60;;;2.60;29.60;;;;;;5077623;28;20633;-68
2022/12/01 07:09:46;;;;;;;520.57;483.47;;;2.70;30.00;;;;;;5076723;28;20693;-68
2022/12/01 07:12:12;;;;;;;567.57;525.93;;;2.60;29.70;;;;;;5076817;28;20197;-68
2022/12/01 07:14:38;;;;;;;533.13;493.13;;;2.60;29.60;;;;;;5078267;28;20214;-68
2022/12/01 07:17:04;;;;;;;572.30;532.70;;;2.60;29.90;;;;;;5075469;28;20219;-68
2022/12/01 07:19:29;;;;;;;382.77;355.63;;;2.60;30.00;;;;;;5075673;28;20186;-68
2022/12/01 07:21:55;;;;;;;556.93;517.23;;;2.70;30.30;;;;;;5074834;28;20183;-67
2022/12/01 07:24:21;;;;;;;367.00;339.27;;;2.60;29.70;;;;;;5072987;28;20185;-68
2022/12/01 07:26:47;;;;;;;293.63;261.57;;;2.60;30.10;;;;;;5076586;28;20844;-68
2022/12/01 07:29:12;;;;;;;479.50;445.13;;;2.70;30.30;;;;;;5075873;28;20192;-67
2022/12/01 07:31:38;;;;;;;113.17;86.87;;;2.80;29.70;;;;;;5071907;28;20419;-68
2022/12/01 07:34:04;;;;;;;357.67;330.57;;;2.80;30.20;;;;;;5074435;28;20204;-72
2022/12/01 07:36:30;;;;;;;329.88;304.92;;;2.80;29.70;;;;;;5075506;28;20176;-68
2022/12/01 07:38:56;;;;;;;358.50;330.73;;;2.70;29.80;;;;;;5075677;28;20284;-68
2022/12/01 07:41:22;;;;;;;254.73;233.53;;;2.70;30.10;;;;;;5075839;28;20639;-68
2022/12/01 07:43:47;;;;;;;366.73;338.63;;;2.70;30.60;;;;;;5055389;28;20198;-68
2022/12/01 07:46:16;;;;;;;126.70;98.07;;;2.80;30.00;;;;;;5048262;28;20419;-68
2022/12/01 07:48:42;;;;;;;286.98;265.10;;;2.80;30.00;;;;;;5059228;28;20524;-68
2022/12/01 07:51:11;;;;;;;497.42;460.45;;;2.90;30.00;;;;;;5071109;28;20212;-68
2022/12/01 07:53:37;;;;;;;351.00;323.20;;;2.90;29.80;;;;;;5075857;28;20837;-68
2022/12/01 07:56:04;;;;;;;440.10;407.20;;;2.80;30.10;;;;;;5077004;28;20212;-68
2022/12/01 07:58:30;;;;;;;538.88;502.20;;;2.80;30.30;;;;;;5076634;28;20437;-67
2022/12/01 08:00:55;;;;;;;360.80;333.50;;;2.80;30.10;;;;;;5076828;28;20182;-68
2022/12/01 08:03:21;;;;;;;674.67;628.30;;;2.90;30.00;;;;;;5075692;28;20214;-68
2022/12/01 08:06:07;;;;;;;360.48;334.80;;;2.80;29.80;;;;;;5075358;28;20268;-67
2022/12/01 08:08:34;;;;;;;417.98;388.70;;;2.80;30.00;;;;;;5071443;28;20224;-68
2022/12/01 08:11:05;;;;;;;498.98;458.80;;;2.90;30.20;;;;;;5074755;28;20269;-67
2022/12/01 08:13:31;;;;;;;325.48;301.23;;;2.90;30.50;;;;;;5073525;28;20195;-68
2022/12/01 08:15:56;;;;;;;366.45;338.67;;;2.80;30.00;;;;;;5072900;28;20231;-68
2022/12/01 08:18:22;;;;;;;522.57;485.00;;;2.80;30.20;;;;;;5071217;28;20198;-67
2022/12/01 08:20:48;;;;;;;614.57;571.47;;;2.80;29.80;;;;;;5070467;28;20192;-69
2022/12/01 08:23:14;;;;;;;524.42;487.42;;;2.80;29.70;;;;;;5073738;28;20210;-68
2022/12/01 08:25:40;;;;;;;452.30;418.47;;;2.80;29.90;;;;;;5076361;28;20270;-67
2022/12/01 08:28:05;;;;;;;538.63;500.63;;;2.80;30.30;;;;;;5077054;28;20188;-70
2022/12/01 08:30:31;;;;;;;218.90;198.87;;;2.70;30.20;;;;;;5075849;28;20641;-70
2022/12/01 08:32:57;;;;;;;423.33;392.90;;;2.70;30.70;;;;;;5076834;28;20196;-68
2022/12/01 08:35:24;;;;;;;382.10;353.95;;;2.80;30.60;;;;;;5077682;28;20195;-70
2022/12/01 08:37:53;;;;;;;137.85;113.93;;;2.80;30.70;;;;;;5079458;28;20188;-70
2022/12/01 08:40:20;;;;;;;162.75;146.30;;;2.90;31.20;;;;;;5078912;28;20209;-69
2022/12/01 08:42:45;;;;;;;640.85;598.28;;;3.00;30.50;;;;;;5079005;28;20236;-68
2022/12/01 08:45:11;;;;;;;444.50;411.53;;;2.90;30.30;;;;;;5072259;28;20185;-70
2022/12/01 08:47:36;;;;;;;575.97;533.00;;;2.90;30.60;;;;;;5072930;28;20185;-69
2022/12/01 08:50:03;;;;;;;623.50;580.20;;;3.00;31.30;;;;;;5075069;28;20212;-70
2022/12/01 08:52:33;;;;;;;491.00;455.25;;;3.00;30.90;;;;;;5079373;28;20185;-69
2022/12/01 08:55:00;;;;;;;424.52;392.15;;;3.10;30.10;;;;;;5079395;28;20259;-70
2022/12/01 08:57:27;;;;;;;227.38;209.68;;;3.10;30.20;;;;;;5079004;28;20185;-70
2022/12/01 08:59:53;;;;;;;553.75;512.88;;;3.10;30.50;;;;;;5077786;28;20275;-70
2022/12/01 09:02:21;;;;;;;385.97;356.37;;;3.20;30.30;;;;;;5076339;28;20262;-70
2022/12/01 09:04:48;;;;;;;683.13;635.60;;;3.20;30.50;;;;;;5077485;28;20223;-70
2022/12/01 09:07:15;;;;;;;585.97;544.67;;;3.10;30.90;;;;;;5077346;28;20173;-70
2022/12/01 09:09:42;;;;;;;463.08;429.90;;;3.10;31.40;;;;;;5119599;22;20223;-70
2022/12/01 09:12:09;;;;;;;461.10;425.98;;;3.00;31.30;;;;;;5114662;28;20529;-70
2022/12/01 09:14:39;;;;;;;584.47;542.20;;;3.00;31.30;;;;;;5114947;28;20212;-69
2022/12/01 09:17:06;;;;;;;365.23;336.90;;;3.00;32.00;;;;;;5111701;28;20239;-71
2022/12/01 09:19:31;;;;;;;509.35;472.92;;;2.90;32.30;;;;;;5107134;28;20556;-71
2022/12/01 09:21:57;;;;;;;226.37;206.50;;;2.80;33.20;;;;;;5093863;28;20183;-71
2022/12/01 09:24:23;;;;;;;486.90;450.73;;;2.90;34.10;;;;;;5093848;28;20170;-70
2022/12/01 09:26:49;;;;;;;614.57;569.97;;;2.90;33.30;;;;;;5086014;28;20270;-70
2022/12/01 09:29:15;;;;;;;639.07;593.77;;;2.90;33.30;;;;;;5096928;28;20204;-70
2022/12/01 09:31:41;;;;;;;270.45;248.38;;;2.90;33.80;;;;;;5099684;28;20435;-70
2022/12/01 09:34:11;;;;;;;369.17;339.95;;;2.90;35.00;;;;;;5076384;28;20580;-72
2022/12/01 09:36:37;;;;;;;430.00;396.00;;;3.00;34.30;;;;;;5114619;28;20594;-70
2022/12/01 09:39:07;;;;;;;638.57;591.03;;;3.10;34.80;;;;;;5114107;28;20230;-70
2022/12/01 09:41:37;;;;;;;558.72;519.88;;;3.10;34.00;;;;;;5114098;28;20500;-71
2022/12/01 09:44:33;;;;;;;568.22;524.75;;;3.10;33.60;;;;;;5114154;28;20207;-71
2022/12/01 09:47:17;;;;;;;690.13;641.17;;;3.10;34.20;;;;;;5085460;28;20188;-71
2022/12/01 09:49:46;;;;;;;622.92;578.45;;;3.00;34.90;;;;;;5093753;28;20200;-71
2022/12/01 09:52:14;;;;;;;377.85;348.30;;;3.10;34.20;;;;;;5093061;28;20199;-70
2022/12/01 09:54:40;;;;;;;463.05;427.17;;;3.10;35.00;;;;;;5093515;28;20736;-70
2022/12/01 09:57:14;;;;;;;653.53;608.25;;;3.10;34.80;;;;;;5068384;28;20198;-70
2022/12/01 09:59:42;;;;;;;245.13;222.40;;;3.00;34.20;;;;;;5069695;28;20550;-71
2022/12/01 10:02:36;;;;;;;623.22;578.88;;;3.10;35.40;;;;;;5067706;28;20184;-71
2022/12/01 10:05:08;;;;;;;487.58;452.23;;;3.10;35.30;;;;;;5108742;28;20877;-70
2022/12/01 10:07:43;;;;;;;451.00;416.85;;;3.20;36.40;;;;;;5112864;28;20772;-70
2022/12/01 10:10:31;;;;;;;684.95;632.42;;;3.20;35.00;;;;;;5095142;28;20276;-70
2022/12/01 10:12:57;;;;;;;562.35;522.28;;;3.20;34.10;;;;;;5103570;28;20540;-70
2022/12/01 10:15:59;;;;;;;625.33;578.77;;;3.20;33.80;;;;;;5113309;28;20175;-70
2022/12/01 10:18:50;;;;;;;416.20;386.58;;;3.20;34.80;;;;;;5091900;28;20423;-70
2022/12/01 10:21:28;;;;;;;510.63;469.40;;;3.20;34.60;;;;;;5101717;28;20277;-73
2022/12/01 10:23:59;;;;;;;615.40;571.53;;;3.20;35.30;;;;;;5072014;28;20183;-69
2022/12/01 10:26:44;;;;;;;660.20;613.30;;;3.10;33.70;;;;;;5088799;28;20677;-69
2022/12/01 10:29:27;;;;;;;596.95;554.50;;;3.10;34.30;;;;;;5094918;28;20203;-69
2022/12/01 10:32:00;;;;;;;744.03;685.60;;;3.10;34.20;;;;;;5112828;28;20203;-70
2022/12/01 10:34:29;;;;;;;336.52;306.92;;;3.10;34.00;;;;;;5106957;28;20562;-70
2022/12/01 10:36:55;;;;;;;485.17;450.02;;;3.30;34.30;;;;;;5092668;28;20545;-70
2022/12/01 10:39:37;;;;;;;523.80;484.15;;;3.40;34.10;;;;;;5092673;28;20195;-70
2022/12/01 10:42:45;;;;;;;459.70;425.05;;;3.30;33.00;;;;;;5107499;28;20183;-70
2022/12/01 10:45:32;;;;;;;128.18;95.15;;;3.40;33.60;;;;;;5113413;28;20305;-71
2022/12/01 10:48:16;;;;;;;505.55;469.95;;;3.40;32.70;;;;;;5113126;28;20645;-70
2022/12/01 10:50:54;;;;;;;566.35;525.47;;;3.40;33.40;;;;;;5109681;28;20174;-70
2022/12/01 10:53:22;;;;;;;550.22;509.42;;;3.30;32.50;;;;;;5092244;28;20212;-70
2022/12/01 10:56:06;;;;;;;702.85;652.53;;;3.40;33.30;;;;;;5091763;28;20181;-70
2022/12/01 10:58:41;;;;;;;510.05;471.23;;;3.40;32.80;;;;;;5092218;28;20193;-70
2022/12/01 11:01:14;;;;;;;597.08;553.03;;;3.40;32.20;;;;;;5093195;28;20335;-71
2022/12/01 11:03:39;;;;;;;631.42;588.28;;;3.40;32.30;;;;;;5092364;28;20225;-71
2022/12/01 11:06:06;;;;;;;575.50;533.90;;;3.30;32.10;;;;;;5092369;28;20179;-70
2022/12/01 11:08:40;;;;;;;294.20;269.97;;;3.40;33.40;;;;;;5096366;28;20286;-69
2022/12/01 11:11:21;;;;;;;405.17;372.40;;;3.50;33.80;;;;;;5113129;28;20447;-68
2022/12/01 11:13:47;;;;;;;587.17;545.35;;;3.40;32.70;;;;;;5112313;28;20194;-69
2022/12/01 11:16:32;;;;;;;465.70;430.47;;;3.40;33.30;;;;;;5112723;28;20220;-69
2022/12/01 11:19:31;;;;;;;334.08;307.95;;;3.40;33.50;;;;;;5105319;28;20212;-71
2022/12/01 11:22:00;;;;;;;471.73;436.50;;;3.50;33.40;;;;;;5093470;28;20666;-70
2022/12/01 11:24:43;;;;;;;351.20;323.47;;;3.50;33.40;;;;;;5093217;28;20409;-70
2022/12/01 11:27:47;;;;;;;539.85;502.65;;;3.50;33.10;;;;;;5093406;28;20466;-69
2022/12/01 11:30:21;;;;;;;120.90;85.37;;;3.40;32.70;;;;;;5048221;28;20221;-70
2022/12/01 11:32:53;;;;;;;483.90;448.20;;;3.40;33.70;;;;;;5054250;28;21064;-70
2022/12/01 11:35:21;;;;;;;678.00;629.15;;;3.50;33.90;;;;;;5091862;28;20549;-70
2022/12/01 11:37:54;;;;;;;161.13;142.17;;;3.50;32.90;;;;;;5091783;28;20221;-69
2022/12/01 11:40:31;;;;;;;413.20;382.10;;;3.40;33.40;;;;;;5110473;28;20440;-70
2022/12/01 11:43:03;;;;;;;499.63;461.75;;;3.50;33.90;;;;;;5112366;28;20545;-69
2022/12/01 11:45:39;;;;;;;289.45;267.75;;;3.50;32.80;;;;;;5112238;28;20518;-69
2022/12/01 11:48:10;;;;;;;500.13;462.47;;;3.50;33.10;;;;;;5094384;28;20232;-73
2022/12/01 11:50:38;;;;;;;585.25;544.25;;;3.40;32.90;;;;;;5071290;28;20923;-69
2022/12/01 11:53:29;;;;;;;600.00;558.73;;;3.40;32.60;;;;;;5052896;28;20210;-69
2022/12/01 11:56:13;;;;;;;376.70;345.40;;;3.50;32.40;;;;;;5071479;28;20421;-69
2022/12/01 11:58:40;;;;;;;562.20;520.97;;;3.50;33.20;;;;;;5080054;28;20465;-71
2022/12/01 12:01:34;;;;;;;504.98;468.60;;;3.50;32.00;;;;;;5111911;28;20186;-68
2022/12/01 12:04:24;;;;;;;715.28;667.22;;;3.50;32.60;;;;;;5060109;28;20190;-68
2022/12/01 12:07:14;;;;;;;231.23;210.10;;;3.70;32.30;;;;;;5093659;28;20201;-68
2022/12/01 12:09:43;;;;;;;511.47;473.73;;;3.60;31.00;;;;;;5100846;28;20619;-69
2022/12/01 12:12:08;;;;;;;286.63;262.67;;;3.60;30.90;;;;;;5095359;28;20444;-71
2022/12/01 12:14:51;;;;;;;346.10;318.40;;;3.60;31.80;;;;;;5095521;28;20494;-68
2022/12/01 12:17:44;;;;;;;461.57;427.20;;;3.70;31.60;;;;;;5095647;28;20630;-69
2022/12/01 12:20:28;;;;;;;578.22;537.78;;;3.70;31.40;;;;;;5063802;28;20945;-69
2022/12/01 12:23:07;;;;;;;506.37;468.77;;;3.60;31.80;;;;;;5115513;28;20183;-69
2022/12/01 12:25:54;;;;;;;743.28;689.30;;;3.50;31.70;;;;;;5115781;28;20455;-68
2022/12/01 12:28:36;;;;;;;300.88;278.33;;;3.50;32.30;;;;;;5114539;28;20197;-69
2022/12/01 12:31:23;;;;;;;220.38;201.18;;;3.50;32.50;;;;;;5077354;28;20176;-69
2022/12/01 12:33:55;;;;;;;595.85;551.88;;;3.50;31.70;;;;;;5095078;28;20197;-69
2022/12/01 12:36:29;;;;;;;531.87;493.43;;;3.40;31.20;;;;;;5095089;28;20168;-68
2022/12/01 12:39:14;;;;;;;642.90;596.13;;;3.40;31.90;;;;;;5105420;28;20580;-69
2022/12/01 12:41:52;;;;;;;468.57;435.47;;;3.40;31.60;;;;;;5115107;28;20867;-69